Time;durP1;ratioP1;P1;durP2;ratioP2;P2;SDS_P1;SDS_P2;PMS_P1;PMS_P2;Temp;Humidity;BMP_temperature;BMP_pressure;BME280_temperature;BME280_humidity;BME280_pressure;Samples;Min_cycle;Max_cycle;Signal;HPM_P1;HPM_P2
2023/03/06 00:03:32;;;;;;;;;;;19.60;28.50;;;;;;8365983;28;20290;-43
2023/03/06 00:07:33;;;;;;;;;;;19.60;28.60;;;;;;8365643;28;19928;-44
2023/03/06 00:11:33;;;;;;;;;;;19.60;28.60;;;;;;8365832;28;19964;-44
2023/03/06 00:15:33;;;;;;;;;;;19.60;28.60;;;;;;8365470;28;19921;-43
2023/03/06 00:19:34;;;;;;;;;;;19.50;28.60;;;;;;8364889;28;19921;-43
2023/03/06 00:23:35;;;;;;;;;;;19.50;28.50;;;;;;8365091;28;19924;-44
2023/03/06 00:27:35;;;;;;;;;;;19.50;28.60;;;;;;8365542;28;20000;-43
2023/03/06 00:31:36;;;;;;;;;;;19.50;28.60;;;;;;8364340;28;19996;-44
2023/03/06 00:35:39;;;;;;;;;;;19.50;28.60;;;;;;8365071;28;19925;-43
2023/03/06 00:39:39;;;;;;;;;;;19.50;28.60;;;;;;8364756;28;19917;-42
2023/03/06 00:43:40;;;;;;;;;;;19.50;28.60;;;;;;8363844;28;20435;-43
2023/03/06 00:47:40;;;;;;;;;;;19.40;28.60;;;;;;8364611;28;19913;-42
2023/03/06 00:51:41;;;;;;;;;;;19.40;28.60;;;;;;8364265;28;19967;-42
2023/03/06 00:55:44;;;;;;;;;;;19.40;29.00;;;;;;8363399;28;19956;-42
2023/03/06 00:59:45;;;;;;;;;;;19.40;28.60;;;;;;8364404;28;19928;-43
2023/03/06 01:03:45;;;;;;;;;;;19.40;28.60;;;;;;8364100;28;19920;-43
2023/03/06 01:07:46;;;;;;;;;;;19.30;28.60;;;;;;8363596;28;19917;-43
2023/03/06 01:11:46;;;;;;;;;;;19.40;28.60;;;;;;8364097;28;19921;-43
2023/03/06 01:15:46;;;;;;;;;;;19.30;28.60;;;;;;8363626;28;20389;-43
2023/03/06 01:19:47;;;;;;;;;;;19.30;28.60;;;;;;8363053;28;19917;-43
2023/03/06 01:23:47;;;;;;;;;;;19.30;28.60;;;;;;8363599;28;19956;-42
2023/03/06 01:27:48;;;;;;;;;;;19.30;28.60;;;;;;8363431;28;19917;-43
2023/03/06 01:31:48;;;;;;;;;;;19.30;28.60;;;;;;8362764;28;19971;-43
2023/03/06 01:35:49;;;;;;;;;;;19.20;28.60;;;;;;8363183;28;19916;-45
2023/03/06 01:39:49;;;;;;;;;;;19.20;28.70;;;;;;8363146;28;19963;-44
2023/03/06 01:43:50;;;;;;;;;;;19.20;28.60;;;;;;8362618;28;19925;-42
2023/03/06 01:47:50;;;;;;;;;;;19.10;28.60;;;;;;8363169;28;19924;-43
2023/03/06 01:51:52;;;;;;;;;;;19.20;28.60;;;;;;8363162;28;19990;-43
2023/03/06 01:55:53;;;;;;;;;;;19.20;28.60;;;;;;8362640;28;20328;-44
2023/03/06 01:59:58;;;;;;;;;;;19.20;28.60;;;;;;8363293;28;19921;-44
2023/03/06 02:03:59;;;;;;;;;;;19.10;28.60;;;;;;8361481;28;19921;-43
2023/03/06 02:08:01;;;;;;;;;;;19.10;28.60;;;;;;8369369;28;19923;-44
2023/03/06 02:12:04;;;;;;;;;;;19.10;28.60;;;;;;8369276;28;19963;-44
2023/03/06 02:16:07;;;;;;;;;;;19.10;28.60;;;;;;8368698;28;19924;-43
2023/03/06 02:20:19;;;;;;;;;;;19.00;28.60;;;;;;8369416;28;19970;-43
2023/03/06 02:24:39;;;;;;;;;;;19.00;28.70;;;;;;8368768;28;19921;-42
2023/03/06 02:28:39;;;;;;;;;;;19.00;28.70;;;;;;8368613;28;19912;-44
2023/03/06 02:32:40;;;;;;;;;;;19.00;28.60;;;;;;8368527;28;19960;-44
2023/03/06 02:36:44;;;;;;;;;;;19.00;28.70;;;;;;8368600;28;19917;-43
2023/03/06 02:40:46;;;;;;;;;;;19.00;28.70;;;;;;8368015;28;19999;-44
2023/03/06 02:44:47;;;;;;;;;;;19.00;28.70;;;;;;8368248;28;19952;-45
2023/03/06 02:48:47;;;;;;;;;;;18.90;28.70;;;;;;8368835;28;19920;-43
2023/03/06 02:52:48;;;;;;;;;;;19.00;28.70;;;;;;8367668;28;19917;-43
2023/03/06 02:56:48;;;;;;;;;;;19.00;28.70;;;;;;8368212;28;19923;-42
2023/03/06 03:00:49;;;;;;;;;;;18.90;28.70;;;;;;8368301;28;19956;-44
2023/03/06 03:04:49;;;;;;;;;;;18.90;28.70;;;;;;8367217;28;20274;-43
2023/03/06 03:08:49;;;;;;;;;;;18.90;28.80;;;;;;8368089;28;19948;-43
2023/03/06 03:12:50;;;;;;;;;;;18.90;28.80;;;;;;8367467;28;19970;-43
2023/03/06 03:16:51;;;;;;;;;;;18.90;28.80;;;;;;8366734;28;19917;-43
2023/03/06 03:20:51;;;;;;;;;;;18.90;28.80;;;;;;8367140;28;19961;-44
2023/03/06 03:24:51;;;;;;;;;;;18.80;28.70;;;;;;8366547;28;20274;-42
2023/03/06 03:28:52;;;;;;;;;;;18.80;28.80;;;;;;8367479;28;19945;-46
2023/03/06 03:32:52;;;;;;;;;;;18.80;28.70;;;;;;8366750;28;19917;-44
2023/03/06 03:36:53;;;;;;;;;;;18.80;28.70;;;;;;8366315;28;19975;-43
2023/03/06 03:40:53;;;;;;;;;;;18.80;28.80;;;;;;8366473;28;20388;-44
2023/03/06 03:44:54;;;;;;;;;;;18.80;28.80;;;;;;8366582;28;19921;-44
2023/03/06 03:48:54;;;;;;;;;;;18.80;28.80;;;;;;8366040;28;19913;-43
2023/03/06 03:52:55;;;;;;;;;;;18.80;28.80;;;;;;8366470;28;19921;-44
2023/03/06 03:56:55;;;;;;;;;;;18.70;28.80;;;;;;8366130;28;19971;-44
2023/03/06 04:00:56;;;;;;;;;;;18.70;28.80;;;;;;8365678;28;19925;-43
2023/03/06 04:04:56;;;;;;;;;;;18.70;28.80;;;;;;8365950;28;19924;-44
2023/03/06 04:08:57;;;;;;;;;;;18.70;28.80;;;;;;8366086;28;19913;-43
2023/03/06 04:12:57;;;;;;;;;;;18.70;28.80;;;;;;8364928;28;19920;-43
2023/03/06 04:16:57;;;;;;;;;;;18.70;28.80;;;;;;8365355;28;19917;-43
2023/03/06 04:20:58;;;;;;;;;;;18.70;28.80;;;;;;8365138;28;20015;-43
2023/03/06 04:24:58;;;;;;;;;;;18.70;28.80;;;;;;8364510;28;19976;-43
2023/03/06 04:28:59;;;;;;;;;;;18.70;28.80;;;;;;8364607;28;20072;-44
2023/03/06 04:32:59;;;;;;;;;;;18.70;28.80;;;;;;8364728;28;19917;-42
2023/03/06 04:37:00;;;;;;;;;;;18.70;28.80;;;;;;8364265;28;19917;-42
2023/03/06 04:41:00;;;;;;;;;;;18.70;28.80;;;;;;8364672;28;19928;-43
2023/03/06 04:45:00;;;;;;;;;;;18.70;28.80;;;;;;8364700;28;19974;-43
2023/03/06 04:49:01;;;;;;;;;;;18.70;28.80;;;;;;8364037;28;20408;-44
2023/03/06 04:53:03;;;;;;;;;;;18.70;28.80;;;;;;8364528;28;20352;-43
2023/03/06 04:57:03;;;;;;;;;;;18.70;28.80;;;;;;8364306;28;20297;-43
2023/03/06 05:01:04;;;;;;;;;;;18.70;28.80;;;;;;8364167;28;19921;-45
2023/03/06 05:05:05;;;;;;;;;;;18.70;28.70;;;;;;8364246;28;19920;-43
2023/03/06 05:09:05;;;;;;;;;;;18.70;28.70;;;;;;8362751;28;19929;-43
2023/03/06 05:13:06;;;;;;;;;;;18.70;28.80;;;;;;8363341;28;19971;-43
2023/03/06 05:17:06;;;;;;;;;;;18.90;28.80;;;;;;8363665;28;20321;-43
2023/03/06 05:21:07;;;;;;;;;;;18.90;28.70;;;;;;8363685;28;19982;-44
2023/03/06 05:25:09;;;;;;;;;;;19.10;28.70;;;;;;8363183;28;19932;-43
2023/03/06 05:29:09;;;;;;;;;;;19.20;28.60;;;;;;8363617;28;20301;-44
2023/03/06 05:33:10;;;;;;;;;;;19.30;28.60;;;;;;8363424;28;19917;-43
2023/03/06 05:37:10;;;;;;;;;;;19.40;28.60;;;;;;8362790;28;19917;-44
2023/03/06 05:41:11;;;;;;;;;;;19.50;28.50;;;;;;8363000;28;20328;-44
2023/03/06 05:45:12;;;;;;;;;;;19.50;28.50;;;;;;8363446;28;19925;-44
2023/03/06 05:49:12;;;;;;;;;;;19.60;28.50;;;;;;8362651;28;20377;-44
2023/03/06 05:53:13;;;;;;;;;;;19.70;28.50;;;;;;8362741;28;20381;-45
2023/03/06 05:57:13;;;;;;;;;;;19.70;28.50;;;;;;8362863;28;20015;-43
2023/03/06 06:01:15;;;;;;;;;;;19.80;28.50;;;;;;8362848;28;19925;-42
2023/03/06 06:05:16;;;;;;;;;;;19.80;28.40;;;;;;8362867;28;19974;-44
2023/03/06 06:09:16;;;;;;;;;;;19.90;28.50;;;;;;8362671;28;19967;-44
2023/03/06 06:13:17;;;;;;;;;;;19.80;28.40;;;;;;8362212;28;19917;-44
2023/03/06 06:17:17;;;;;;;;;;;19.90;28.40;;;;;;8362629;28;19916;-42
2023/03/06 06:21:18;;;;;;;;;;;19.90;28.40;;;;;;8362585;28;20008;-43
2023/03/06 06:25:18;;;;;;;;;;;19.90;28.40;;;;;;8362079;28;20050;-43
2023/03/06 06:29:19;;;;;;;;;;;19.90;28.30;;;;;;8362347;28;19979;-45
2023/03/06 06:33:20;;;;;;;;;;;19.90;28.40;;;;;;8362353;28;19913;-44
2023/03/06 06:37:20;;;;;;;;;;;19.90;28.80;;;;;;8361913;28;19917;-43
2023/03/06 06:41:21;;;;;;;;;;;20.00;28.40;;;;;;8362656;28;20000;-42
2023/03/06 06:45:21;;;;;;;;;;;19.90;28.40;;;;;;8362165;28;19935;-44
2023/03/06 06:49:22;;;;;;;;;;;19.90;28.40;;;;;;8361647;28;19939;-45
2023/03/06 06:53:22;;;;;;;;;;;20.00;28.40;;;;;;8367280;28;19917;-44
2023/03/06 06:57:22;;;;;;;;;;;19.90;28.40;;;;;;8368030;28;19973;-43
2023/03/06 07:01:23;;;;;;;;;;;19.90;28.40;;;;;;8367798;28;19943;-44
2023/03/06 07:05:23;;;;;;;;;;;19.90;28.40;;;;;;8368129;28;20011;-43
2023/03/06 07:09:24;;;;;;;;;;;19.90;28.40;;;;;;8367461;28;19924;-44
2023/03/06 07:13:24;;;;;;;;;;;19.90;28.50;;;;;;8367053;28;19917;-44
2023/03/06 07:17:25;;;;;;;;;;;19.80;28.50;;;;;;8367507;28;20010;-44
2023/03/06 07:21:25;;;;;;;;;;;19.80;28.50;;;;;;8367197;28;19971;-44
2023/03/06 07:25:26;;;;;;;;;;;19.80;28.50;;;;;;8366806;28;19972;-44
2023/03/06 07:29:26;;;;;;;;;;;19.80;28.60;;;;;;8366968;28;19990;-44
2023/03/06 07:33:27;;;;;;;;;;;19.80;28.50;;;;;;8367065;28;20251;-44
2023/03/06 07:37:27;;;;;;;;;;;19.90;28.50;;;;;;8366373;28;20374;-43
2023/03/06 07:41:28;;;;;;;;;;;19.90;28.40;;;;;;8366750;28;20428;-46
2023/03/06 07:45:28;;;;;;;;;;;20.00;28.50;;;;;;8366842;28;19924;-43
2023/03/06 07:49:29;;;;;;;;;;;20.00;28.40;;;;;;8366045;28;19924;-44
2023/03/06 07:53:29;;;;;;;;;;;20.10;28.40;;;;;;8366212;28;19917;-44
2023/03/06 07:57:30;;;;;;;;;;;20.10;28.30;;;;;;8366237;28;19920;-45
2023/03/06 08:01:30;;;;;;;;;;;20.20;28.40;;;;;;8365255;28;20374;-45
2023/03/06 08:05:30;;;;;;;;;;;20.20;28.30;;;;;;8365507;28;19925;-44
2023/03/06 08:09:32;;;;;;;;;;;20.20;28.30;;;;;;8364609;28;19916;-43
2023/03/06 08:13:33;;;;;;;;;;;20.20;28.30;;;;;;8365133;28;19921;-45
2023/03/06 08:17:33;;;;;;;;;;;20.20;28.30;;;;;;8365375;28;20005;-45
2023/03/06 08:21:34;;;;;;;;;;;20.20;28.30;;;;;;8365530;28;19991;-45
2023/03/06 08:25:34;;;;;;;;;;;20.20;28.40;;;;;;8364701;28;19929;-45
2023/03/06 08:29:35;;;;;;;;;;;20.10;28.40;;;;;;8365156;28;19999;-43
2023/03/06 08:33:35;;;;;;;;;;;20.10;28.40;;;;;;8364804;28;19913;-45
2023/03/06 08:37:36;;;;;;;;;;;20.10;28.30;;;;;;8364765;28;20012;-45
2023/03/06 08:41:36;;;;;;;;;;;20.10;28.50;;;;;;8364856;28;19939;-46
2023/03/06 08:45:38;;;;;;;;;;;20.10;28.50;;;;;;8364364;28;19928;-44
2023/03/06 08:49:38;;;;;;;;;;;20.10;28.40;;;;;;8363939;28;19917;-45
2023/03/06 08:53:39;;;;;;;;;;;20.00;28.40;;;;;;8364397;28;19917;-45
2023/03/06 08:57:39;;;;;;;;;;;19.90;28.40;;;;;;8364194;28;19913;-44
2023/03/06 09:01:40;;;;;;;;;;;20.00;28.40;;;;;;8363923;28;20224;-44
2023/03/06 09:05:40;;;;;;;;;;;19.90;28.40;;;;;;8363729;28;19964;-45
2023/03/06 09:09:41;;;;;;;;;;;19.90;28.40;;;;;;8363682;28;19917;-43
2023/03/06 09:13:42;;;;;;;;;;;19.90;28.40;;;;;;8362559;28;19957;-45
2023/03/06 09:17:42;;;;;;;;;;;19.90;28.40;;;;;;8363457;28;19948;-44
2023/03/06 09:21:43;;;;;;;;;;;19.80;28.40;;;;;;8363412;28;20004;-45
2023/03/06 09:25:43;;;;;;;;;;;19.80;28.40;;;;;;8362555;28;19925;-44
2023/03/06 09:29:43;;;;;;;;;;;19.80;28.40;;;;;;8363135;28;20343;-44
2023/03/06 09:33:44;;;;;;;;;;;19.80;28.40;;;;;;8362467;28;19913;-44
2023/03/06 09:37:44;;;;;;;;;;;19.80;28.40;;;;;;8362568;28;19917;-45
2023/03/06 09:41:48;;;;;;;;;;;19.80;28.40;;;;;;8363222;28;20003;-44
2023/03/06 09:45:48;;;;;;;;;;;19.80;28.50;;;;;;8362997;28;19925;-44
2023/03/06 09:49:52;;;;;;;;;;;19.70;28.40;;;;;;8362301;28;19923;-44
2023/03/06 09:54:11;;;;;;;;;;;19.70;28.40;;;;;;8363006;28;20002;-44
2023/03/06 09:58:14;;;;;;;;;;;19.70;28.40;;;;;;8362538;28;19923;-45
2023/03/06 10:02:19;;;;;;;;;;;19.70;28.50;;;;;;8363234;28;19913;-43
2023/03/06 10:06:22;;;;;;;;;;;19.70;28.50;;;;;;8362928;28;19925;-43
2023/03/06 10:10:24;;;;;;;;;;;19.70;28.50;;;;;;8362267;28;20386;-42
2023/03/06 10:14:33;;;;;;;;;;;19.70;28.50;;;;;;8362586;28;19943;-44
2023/03/06 10:18:37;;;;;;;;;;;19.70;28.50;;;;;;8362840;28;19916;-44
2023/03/06 10:22:41;;;;;;;;;;;19.60;28.50;;;;;;8362046;28;20004;-46
2023/03/06 10:26:47;;;;;;;;;;;19.60;28.50;;;;;;8365851;28;19973;-45
2023/03/06 10:30:51;;;;;;;;;;;19.60;28.50;;;;;;8368836;28;19920;-43
2023/03/06 10:34:52;;;;;;;;;;;19.60;28.50;;;;;;8368190;28;19917;-44
2023/03/06 10:38:53;;;;;;;;;;;19.60;28.50;;;;;;8368878;28;19916;-45
2023/03/06 10:42:54;;;;;;;;;;;19.60;28.50;;;;;;8367866;28;20007;-43
2023/03/06 10:46:55;;;;;;;;;;;19.60;28.50;;;;;;8368882;28;19928;-46
2023/03/06 10:51:07;;;;;;;;;;;19.60;28.50;;;;;;8368477;28;20007;-45
2023/03/06 10:55:20;;;;;;;;;;;19.60;28.50;;;;;;8367249;28;19921;-45
2023/03/06 10:59:24;;;;;;;;;;;19.50;28.50;;;;;;8368129;28;19924;-48
2023/03/06 11:03:24;;;;;;;;;;;19.60;28.50;;;;;;8366734;28;19928;-44
2023/03/06 11:07:26;;;;;;;;;;;19.50;28.40;;;;;;8367500;28;19944;-45
2023/03/06 11:11:26;;;;;;;;;;;19.50;28.40;;;;;;8367897;28;20396;-46
2023/03/06 11:15:27;;;;;;;;;;;19.50;28.40;;;;;;8367454;28;19921;-45
2023/03/06 11:19:28;;;;;;;;;;;19.50;28.40;;;;;;8366828;28;19917;-45
2023/03/06 11:23:42;;;;;;;;;;;19.50;28.50;;;;;;8367258;28;19921;-45
2023/03/06 11:27:44;;;;;;;;;;;19.50;28.50;;;;;;8367769;28;19959;-46
2023/03/06 11:31:48;;;;;;;;;;;19.50;28.50;;;;;;8366755;28;19917;-45
2023/03/06 11:36:07;;;;;;;;;;;19.40;28.50;;;;;;8366463;28;20013;-45
2023/03/06 11:40:07;;;;;;;;;;;19.50;28.50;;;;;;8366098;28;19928;-44
2023/03/06 11:44:34;;;;;;;;;;;19.50;28.50;;;;;;8366535;28;19924;-45
2023/03/06 11:48:41;;;;;;;;;;;19.40;28.40;;;;;;8335733;28;19925;-45
2023/03/06 11:52:48;;;;;;;;;;;19.40;28.50;;;;;;8366096;28;19917;-45
2023/03/06 11:56:51;;;;;;;;;;;19.40;28.40;;;;;;8366304;28;20327;-45
2023/03/06 12:00:53;;;;;;;;;;;19.40;28.40;;;;;;8366421;28;20301;-45
2023/03/06 12:05:11;;;;;;;;;;;19.40;28.40;;;;;;8365852;28;20297;-45
2023/03/06 12:09:11;;;;;;;;;;;19.40;28.40;;;;;;8365657;28;19925;-44
2023/03/06 12:13:12;;;;;;;;;;;19.40;28.40;;;;;;8364756;28;20278;-44
2023/03/06 12:17:30;;;;;;;;;;;19.50;28.40;;;;;;8366170;28;19966;-45
2023/03/06 12:21:43;;;;;;;;;;;19.50;28.50;;;;;;8365365;28;19987;-44
2023/03/06 12:25:50;;;;;;;;;;;19.40;28.40;;;;;;8364753;28;19924;-43
2023/03/06 12:30:05;;;;;;;;;;;19.40;28.40;;;;;;8365063;28;20391;-43
2023/03/06 12:34:12;;;;;;;;;;;19.40;28.40;;;;;;8364488;28;19978;-43
2023/03/06 12:38:19;;;;;;;;;;;19.50;28.40;;;;;;8364316;28;19940;-44
2023/03/06 12:42:19;;;;;;;;;;;19.50;28.40;;;;;;8364623;28;19956;-44
2023/03/06 12:46:21;;;;;;;;;;;19.40;28.40;;;;;;8363890;28;20514;-45
2023/03/06 12:50:27;;;;;;;;;;;19.40;28.40;;;;;;8364083;28;19917;-44
2023/03/06 12:54:29;;;;;;;;;;;19.40;28.40;;;;;;8364164;28;19921;-44
2023/03/06 12:58:29;;;;;;;;;;;19.40;28.40;;;;;;8363699;28;20003;-44
2023/03/06 13:02:33;;;;;;;;;;;19.40;28.80;;;;;;8364442;28;19913;-45
2023/03/06 13:06:33;;;;;;;;;;;19.30;28.40;;;;;;8364100;28;19928;-44
2023/03/06 13:10:35;;;;;;;;;;;19.30;28.40;;;;;;8362992;28;20014;-44
2023/03/06 13:14:35;;;;;;;;;;;19.40;28.40;;;;;;8363837;28;19920;-44
2023/03/06 13:18:36;;;;;;;;;;;19.40;28.40;;;;;;8363993;28;20281;-44
2023/03/06 13:22:36;;;;;;;;;;;19.40;28.30;;;;;;8363103;28;20050;-44
2023/03/06 13:26:37;;;;;;;;;;;19.40;28.40;;;;;;8363211;28;19928;-45
2023/03/06 13:30:37;;;;;;;;;;;19.40;28.40;;;;;;8363246;28;20314;-45
2023/03/06 13:34:38;;;;;;;;;;;19.40;28.40;;;;;;8362345;28;19917;-45
2023/03/06 13:38:38;;;;;;;;;;;19.40;28.40;;;;;;8363469;28;19991;-45
2023/03/06 13:42:41;;;;;;;;;;;19.30;28.30;;;;;;8362842;28;19917;-45
2023/03/06 13:46:42;;;;;;;;;;;19.30;28.30;;;;;;8362404;28;19925;-45
2023/03/06 13:50:46;;;;;;;;;;;19.30;28.30;;;;;;8362798;28;20325;-45
2023/03/06 13:54:59;;;;;;;;;;;19.30;28.30;;;;;;8362943;28;19917;-44
2023/03/06 13:59:18;;;;;;;;;;;19.30;28.30;;;;;;8362928;28;19920;-45
2023/03/06 14:03:31;;;;;;;;;;;19.30;28.30;;;;;;8349690;28;20376;-45
2023/03/06 14:07:38;;;;;;;;;;;19.30;28.30;;;;;;8365984;28;20289;-45
2023/03/06 14:11:44;;;;;;;;;;;19.30;28.30;;;;;;8369666;28;19970;-45
2023/03/06 14:15:46;;;;;;;;;;;19.30;28.30;;;;;;8369253;28;19920;-44
2023/03/06 14:19:47;;;;;;;;;;;19.30;28.30;;;;;;8368837;28;20117;-45
2023/03/06 14:23:55;;;;;;;;;;;19.30;28.30;;;;;;8369046;28;19925;-45
2023/03/06 14:27:56;;;;;;;;;;;19.30;28.30;;;;;;8368988;28;19970;-43
2023/03/06 14:31:57;;;;;;;;;;;19.30;28.30;;;;;;8368930;28;19923;-44
2023/03/06 14:35:59;;;;;;;;;;;19.30;28.30;;;;;;8368564;28;19917;-44
2023/03/06 14:40:00;;;;;;;;;;;19.30;28.30;;;;;;8367949;28;20374;-44
2023/03/06 14:44:08;;;;;;;;;;;19.30;28.30;;;;;;8368520;28;19921;-42
2023/03/06 14:48:13;;;;;;;;;;;19.30;28.20;;;;;;8368489;28;19948;-45
2023/03/06 14:52:16;;;;;;;;;;;19.40;28.20;;;;;;8367744;28;19913;-44
2023/03/06 14:56:18;;;;;;;;;;;19.30;28.20;;;;;;8367903;28;19956;-45
2023/03/06 15:00:21;;;;;;;;;;;19.30;28.30;;;;;;8368279;28;19994;-44
2023/03/06 15:04:27;;;;;;;;;;;19.30;28.30;;;;;;8367424;28;20020;-43
2023/03/06 15:08:30;;;;;;;;;;;19.30;28.20;;;;;;8368111;28;20433;-45
2023/03/06 15:12:32;;;;;;;;;;;19.30;28.30;;;;;;8366919;28;20382;-46
2023/03/06 15:16:33;;;;;;;;;;;19.30;28.30;;;;;;8366916;28;19956;-45
2023/03/06 15:20:36;;;;;;;;;;;19.30;28.30;;;;;;8367002;28;20362;-44
2023/03/06 15:24:37;;;;;;;;;;;19.30;28.30;;;;;;8366988;28;19952;-48
2023/03/06 15:28:38;;;;;;;;;;;19.30;28.30;;;;;;8366872;28;19917;-44
2023/03/06 15:32:41;;;;;;;;;;;19.20;28.30;;;;;;8367238;28;19916;-46
2023/03/06 15:36:46;;;;;;;;;;;19.30;28.30;;;;;;8366797;28;19937;-45
2023/03/06 15:40:57;;;;;;;;;;;19.20;28.30;;;;;;8366044;28;19916;-44
2023/03/06 15:45:01;;;;;;;;;;;19.20;28.30;;;;;;8366529;28;20016;-44
2023/03/06 15:49:02;;;;;;;;;;;19.20;28.20;;;;;;8366170;28;20370;-46
2023/03/06 15:53:02;;;;;;;;;;;19.20;28.30;;;;;;8366686;28;19917;-48
2023/03/06 15:57:04;;;;;;;;;;;19.20;28.60;;;;;;8366391;28;19959;-44
2023/03/06 16:01:04;;;;;;;;;;;19.20;28.20;;;;;;8365821;28;20378;-44
2023/03/06 16:05:13;;;;;;;;;;;19.20;28.20;;;;;;8365552;28;20003;-45
2023/03/06 16:09:13;;;;;;;;;;;19.10;28.30;;;;;;8365860;28;19916;-45
2023/03/06 16:13:16;;;;;;;;;;;19.20;28.30;;;;;;8365057;28;19996;-45
2023/03/06 16:17:17;;;;;;;;;;;19.30;28.30;;;;;;8365400;28;20393;-45
2023/03/06 16:21:17;;;;;;;;;;;19.40;28.20;;;;;;8365328;28;19917;-44
2023/03/06 16:25:18;;;;;;;;;;;19.50;28.20;;;;;;8363529;28;19931;-44
2023/03/06 16:29:20;;;;;;;;;;;19.60;28.20;;;;;;8365017;28;19920;-43
2023/03/06 16:33:20;;;;;;;;;;;19.70;28.10;;;;;;8364857;28;20349;-44
2023/03/06 16:37:21;;;;;;;;;;;19.80;28.00;;;;;;8364181;28;19917;-44
2023/03/06 16:41:22;;;;;;;;;;;19.90;28.00;;;;;;8364941;28;20362;-45
2023/03/06 16:45:23;;;;;;;;;;;19.90;28.00;;;;;;8364458;28;19925;-45
2023/03/06 16:49:24;;;;;;;;;;;20.00;28.00;;;;;;8364079;28;19913;-43
2023/03/06 16:53:24;;;;;;;;;;;20.00;27.90;;;;;;8364437;28;19917;-45
2023/03/06 16:57:27;;;;;;;;;;;20.10;27.90;;;;;;8364120;28;19920;-47
2023/03/06 17:01:27;;;;;;;;;;;20.10;27.90;;;;;;8364122;28;19990;-46
2023/03/06 17:05:28;;;;;;;;;;;20.20;27.90;;;;;;8363725;28;19971;-45
2023/03/06 17:09:28;;;;;;;;;;;20.20;27.90;;;;;;8364163;28;19920;-45
2023/03/06 17:13:29;;;;;;;;;;;20.20;27.90;;;;;;8361673;28;20011;-46
2023/03/06 17:17:29;;;;;;;;;;;20.20;27.90;;;;;;8363687;28;19971;-45
2023/03/06 17:21:30;;;;;;;;;;;20.20;27.80;;;;;;8363643;28;19966;-45
2023/03/06 17:25:30;;;;;;;;;;;20.30;27.80;;;;;;8362870;28;20493;-45
2023/03/06 17:29:31;;;;;;;;;;;20.30;27.90;;;;;;8363553;28;19917;-46
2023/03/06 17:33:31;;;;;;;;;;;20.30;27.80;;;;;;8363162;28;19944;-45
2023/03/06 17:37:32;;;;;;;;;;;20.20;27.90;;;;;;8362408;28;19916;-45
2023/03/06 17:41:32;;;;;;;;;;;20.20;27.90;;;;;;8362812;28;20361;-45
2023/03/06 17:45:34;;;;;;;;;;;20.20;27.90;;;;;;8362764;28;20011;-45
2023/03/06 17:49:35;;;;;;;;;;;20.20;27.90;;;;;;8344709;28;19928;-44
2023/03/06 17:53:36;;;;;;;;;;;20.10;27.90;;;;;;8363115;28;19917;-44
2023/03/06 17:57:36;;;;;;;;;;;20.10;27.90;;;;;;8362931;28;19913;-44
2023/03/06 18:01:36;;;;;;;;;;;20.10;27.90;;;;;;8362633;28;20373;-45
2023/03/06 18:05:37;;;;;;;;;;;20.10;28.00;;;;;;8362556;28;19925;-45
2023/03/06 18:09:39;;;;;;;;;;;20.10;28.00;;;;;;8362848;28;19925;-44
2023/03/06 18:13:41;;;;;;;;;;;20.20;28.00;;;;;;8362098;28;19921;-44
2023/03/06 18:17:41;;;;;;;;;;;20.20;27.90;;;;;;8362606;28;19921;-45
2023/03/06 18:21:42;;;;;;;;;;;20.20;27.90;;;;;;8362342;28;20362;-44
2023/03/06 18:25:43;;;;;;;;;;;20.30;27.90;;;;;;8361705;28;20003;-46
2023/03/06 18:29:43;;;;;;;;;;;20.30;27.90;;;;;;8362801;28;20396;-45
2023/03/06 18:33:46;;;;;;;;;;;20.40;27.90;;;;;;8362257;28;19935;-46
2023/03/06 18:37:47;;;;;;;;;;;20.40;27.80;;;;;;8361682;28;19917;-45
2023/03/06 18:41:47;;;;;;;;;;;20.40;27.90;;;;;;8362094;28;19963;-47
2023/03/06 18:45:54;;;;;;;;;;;20.40;27.80;;;;;;8362123;28;19982;-45
2023/03/06 18:49:54;;;;;;;;;;;20.50;27.90;;;;;;8367598;28;19917;-46
2023/03/06 18:53:56;;;;;;;;;;;20.50;27.90;;;;;;8350003;28;19916;-44
2023/03/06 18:57:56;;;;;;;;;;;20.50;27.90;;;;;;8367252;28;19957;-45
2023/03/06 19:01:58;;;;;;;;;;;20.50;27.80;;;;;;8368340;28;19925;-45
2023/03/06 19:06:02;;;;;;;;;;;20.40;27.70;;;;;;8367457;28;19963;-44
2023/03/06 19:10:02;;;;;;;;;;;20.40;27.80;;;;;;8366904;28;20306;-44
2023/03/06 19:14:03;;;;;;;;;;;20.40;27.80;;;;;;8367362;28;19917;-44
2023/03/06 19:18:03;;;;;;;;;;;20.30;27.70;;;;;;8367094;28;19913;-46
2023/03/06 19:22:04;;;;;;;;;;;20.30;27.70;;;;;;8366609;28;19962;-44
2023/03/06 19:26:06;;;;;;;;;;;20.30;27.80;;;;;;8366810;28;20000;-45
2023/03/06 19:30:07;;;;;;;;;;;20.30;27.90;;;;;;8367098;28;19921;-45
2023/03/06 19:34:07;;;;;;;;;;;20.30;27.90;;;;;;8366082;28;20336;-45
2023/03/06 19:38:09;;;;;;;;;;;20.30;27.90;;;;;;8366881;28;19917;-45
2023/03/06 19:42:09;;;;;;;;;;;20.30;27.90;;;;;;8366645;28;19912;-45
2023/03/06 19:46:12;;;;;;;;;;;20.30;27.90;;;;;;8366055;28;19925;-45
2023/03/06 19:50:13;;;;;;;;;;;20.30;27.90;;;;;;8366587;28;19955;-47
2023/03/06 19:54:14;;;;;;;;;;;20.30;27.90;;;;;;8366192;28;20359;-47
2023/03/06 19:58:14;;;;;;;;;;;20.30;27.90;;;;;;8365310;28;19923;-47
2023/03/06 20:02:15;;;;;;;;;;;20.30;27.90;;;;;;8366130;28;19964;-45
2023/03/06 20:06:17;;;;;;;;;;;20.40;27.90;;;;;;8366287;28;19956;-45
2023/03/06 20:10:17;;;;;;;;;;;20.30;27.80;;;;;;8364275;28;19940;-46
2023/03/06 20:14:18;;;;;;;;;;;20.40;27.90;;;;;;8365630;28;19921;-45
2023/03/06 20:18:18;;;;;;;;;;;20.40;27.90;;;;;;8365598;28;19963;-45
2023/03/06 20:22:19;;;;;;;;;;;20.40;27.90;;;;;;8365067;28;19917;-45
2023/03/06 20:26:19;;;;;;;;;;;20.40;27.90;;;;;;8365650;28;19925;-44
2023/03/06 20:30:20;;;;;;;;;;;20.40;27.90;;;;;;8365162;28;19917;-45
2023/03/06 20:34:20;;;;;;;;;;;20.40;27.90;;;;;;8364479;28;20390;-45
2023/03/06 20:38:21;;;;;;;;;;;20.40;27.90;;;;;;8364966;28;19916;-44
2023/03/06 20:42:21;;;;;;;;;;;20.50;27.90;;;;;;8364789;28;19983;-44
2023/03/06 20:46:22;;;;;;;;;;;20.50;27.90;;;;;;8364513;28;19928;-45
2023/03/06 20:50:22;;;;;;;;;;;20.40;27.90;;;;;;8364458;28;19974;-46
2023/03/06 20:54:23;;;;;;;;;;;20.50;27.90;;;;;;8364458;28;19959;-46
2023/03/06 20:58:27;;;;;;;;;;;20.50;28.10;;;;;;8363726;28;19917;-46
2023/03/06 21:02:27;;;;;;;;;;;20.50;27.90;;;;;;8364474;28;19924;-45
2023/03/06 21:06:28;;;;;;;;;;;20.50;27.90;;;;;;8364238;28;19924;-45
2023/03/06 21:10:29;;;;;;;;;;;20.50;27.90;;;;;;8362872;28;19975;-44
2023/03/06 21:14:30;;;;;;;;;;;20.50;27.90;;;;;;8363857;28;20378;-45
2023/03/06 21:18:32;;;;;;;;;;;20.50;27.90;;;;;;8362953;28;21295;-46
2023/03/06 21:22:33;;;;;;;;;;;20.50;27.90;;;;;;8362868;28;19916;-45
2023/03/06 21:26:33;;;;;;;;;;;20.50;27.80;;;;;;8363295;28;19921;-48
2023/03/06 21:30:33;;;;;;;;;;;20.50;27.80;;;;;;8363440;28;19917;-45
2023/03/06 21:34:34;;;;;;;;;;;20.50;27.80;;;;;;8362850;28;19967;-46
2023/03/06 21:38:35;;;;;;;;;;;20.50;27.80;;;;;;8363094;28;19927;-47
2023/03/06 21:42:35;;;;;;;;;;;20.50;27.80;;;;;;8363392;28;19920;-46
2023/03/06 21:46:36;;;;;;;;;;;20.40;27.80;;;;;;8362714;28;19928;-45
2023/03/06 21:50:36;;;;;;;;;;;20.40;27.80;;;;;;8362980;28;19916;-47
2023/03/06 21:54:37;;;;;;;;;;;20.40;27.80;;;;;;8362884;28;19916;-46
2023/03/06 21:58:37;;;;;;;;;;;20.40;27.80;;;;;;8362262;28;19921;-45
2023/03/06 22:02:38;;;;;;;;;;;20.40;27.90;;;;;;8363093;28;20396;-44
2023/03/06 22:06:41;;;;;;;;;;;20.30;27.90;;;;;;8362955;28;19925;-44
2023/03/06 22:10:42;;;;;;;;;;;20.30;27.80;;;;;;8344162;28;19970;-44
2023/03/06 22:14:42;;;;;;;;;;;20.30;27.90;;;;;;8362891;28;20373;-45
2023/03/06 22:18:44;;;;;;;;;;;20.20;27.90;;;;;;8362453;28;19919;-44
2023/03/06 22:22:44;;;;;;;;;;;20.20;27.90;;;;;;8364814;28;19917;-44
2023/03/06 22:26:45;;;;;;;;;;;20.20;27.90;;;;;;8369319;28;20390;-44
2023/03/06 22:30:45;;;;;;;;;;;20.20;27.90;;;;;;8350988;28;19917;-43
2023/03/06 22:34:46;;;;;;;;;;;20.10;28.00;;;;;;8368509;28;19923;-45
2023/03/06 22:38:47;;;;;;;;;;;20.10;28.00;;;;;;8334464;28;19955;-45
2023/03/06 22:42:47;;;;;;;;;;;20.10;28.00;;;;;;8368552;28;19920;-45
2023/03/06 22:46:48;;;;;;;;;;;20.00;28.00;;;;;;8368112;28;20015;-44
2023/03/06 22:50:48;;;;;;;;;;;20.00;28.10;;;;;;8368584;28;20295;-44
2023/03/06 22:54:49;;;;;;;;;;;20.00;28.10;;;;;;8368435;28;20016;-45
2023/03/06 22:58:49;;;;;;;;;;;19.90;28.10;;;;;;8349517;28;19997;-45
2023/03/06 23:02:50;;;;;;;;;;;19.90;28.20;;;;;;8354937;28;19931;-45
2023/03/06 23:06:51;;;;;;;;;;;19.90;28.20;;;;;;8367339;28;20377;-44
2023/03/06 23:10:51;;;;;;;;;;;19.90;28.20;;;;;;8366706;28;20015;-44
2023/03/06 23:14:52;;;;;;;;;;;19.80;28.20;;;;;;8367722;28;19926;-44
2023/03/06 23:18:53;;;;;;;;;;;19.80;28.20;;;;;;8367161;28;19916;-45
2023/03/06 23:22:53;;;;;;;;;;;19.70;28.30;;;;;;8366662;28;19913;-45
2023/03/06 23:26:53;;;;;;;;;;;19.70;28.30;;;;;;8367280;28;19921;-45